createdAt,value
2018-08-31T00:02:03.221Z,99.90
2018-08-31T00:04:43.621Z,99.90
2018-08-31T00:07:28.165Z,99.90
2018-08-31T00:10:17.486Z,99.90
2018-08-31T00:12:46.543Z,99.90
2018-08-31T00:15:14.823Z,99.90
2018-08-31T00:17:43.997Z,99.90
2018-08-31T00:20:13.583Z,99.90
2018-08-31T00:22:41.888Z,99.90
2018-08-31T00:26:24.220Z,99.90
2018-08-31T00:29:56.846Z,99.90
2018-08-31T00:32:43.450Z,99.90
2018-08-31T00:35:26.005Z,99.90
2018-08-31T00:38:07.391Z,99.90
2018-08-31T00:41:48.726Z,99.90
2018-08-31T00:46:26.009Z,99.90
2018-08-31T00:48:54.305Z,99.90
2018-08-31T00:51:22.610Z,99.90
2018-08-31T00:53:50.910Z,99.90
2018-08-31T00:56:19.214Z,99.90
2018-08-31T00:58:47.573Z,99.90
2018-08-31T01:01:15.883Z,99.90
2018-08-31T01:03:44.204Z,99.90
2018-08-31T01:06:12.611Z,99.90
2018-08-31T01:08:40.908Z,99.90
2018-08-31T01:11:09.222Z,99.90
2018-08-31T01:13:37.637Z,99.90
2018-08-31T01:16:05.942Z,99.90
2018-08-31T01:18:34.205Z,99.90
2018-08-31T01:21:02.510Z,99.90
2018-08-31T01:23:30.827Z,99.90
2018-08-31T01:25:59.085Z,99.90
2018-08-31T01:28:27.384Z,99.90
2018-08-31T01:30:55.670Z,99.90
2018-08-31T01:33:23.930Z,99.90
2018-08-31T01:35:52.222Z,99.90
2018-08-31T01:38:20.526Z,99.90
2018-08-31T01:40:48.910Z,99.90
2018-08-31T01:43:17.233Z,99.90
2018-08-31T01:45:45.514Z,99.90
2018-08-31T01:48:13.790Z,99.90
2018-08-31T01:50:47.371Z,99.90
2018-08-31T01:53:15.642Z,99.90
2018-08-31T01:55:43.994Z,99.90
2018-08-31T01:58:12.246Z,99.90
2018-08-31T02:00:40.512Z,99.90
2018-08-31T02:03:08.746Z,99.90
2018-08-31T02:05:37.050Z,99.90
2018-08-31T02:08:05.817Z,99.90
2018-08-31T02:10:34.102Z,99.90
2018-08-31T02:13:02.387Z,99.90
2018-08-31T02:15:30.633Z,99.90
2018-08-31T02:17:59.018Z,99.90
2018-08-31T02:20:27.297Z,99.90
2018-08-31T02:22:55.573Z,99.90
2018-08-31T02:25:24.044Z,99.90
2018-08-31T02:27:52.417Z,99.90
2018-08-31T02:30:20.704Z,99.90
2018-08-31T02:32:49.009Z,99.90
2018-08-31T02:35:17.248Z,99.90
2018-08-31T02:37:45.514Z,99.90
2018-08-31T02:42:44.982Z,99.90
2018-08-31T02:45:13.268Z,99.90
2018-08-31T02:47:41.610Z,99.90
2018-08-31T02:50:09.863Z,99.90
2018-08-31T02:52:38.131Z,99.90
2018-08-31T02:55:06.405Z,99.90
2018-08-31T02:57:34.674Z,99.90
2018-08-31T03:00:02.940Z,99.90
2018-08-31T03:02:31.235Z,99.90
2018-08-31T03:04:59.523Z,99.90
2018-08-31T03:07:27.837Z,99.90
2018-08-31T03:09:56.100Z,99.90
2018-08-31T03:12:24.385Z,99.90
2018-08-31T03:14:52.658Z,99.90
2018-08-31T03:17:20.949Z,99.90
2018-08-31T03:19:49.256Z,99.90
2018-08-31T03:22:17.575Z,99.90
2018-08-31T03:24:45.839Z,99.90
2018-08-31T03:27:14.149Z,99.90
2018-08-31T03:29:42.529Z,99.90
2018-08-31T03:32:10.844Z,99.90
2018-08-31T03:34:39.158Z,99.90
2018-08-31T03:37:07.611Z,99.90
2018-08-31T03:39:35.783Z,99.90
2018-08-31T03:42:04.089Z,99.90
2018-08-31T03:44:32.360Z,99.90
2018-08-31T03:47:00.658Z,99.90
2018-08-31T03:49:29.092Z,99.90
2018-08-31T03:51:57.467Z,99.90
2018-08-31T03:54:25.750Z,99.90
2018-08-31T03:56:54.085Z,99.90
2018-08-31T03:59:22.346Z,99.90
2018-08-31T04:01:50.679Z,99.90
2018-08-31T04:04:19.004Z,99.90
2018-08-31T04:06:47.302Z,99.90
2018-08-31T04:09:15.646Z,99.90
2018-08-31T04:11:44.066Z,99.90
2018-08-31T04:14:12.369Z,99.90
2018-08-31T04:16:40.819Z,99.90
2018-08-31T04:19:13.756Z,99.90
2018-08-31T04:21:42.121Z,99.90
2018-08-31T04:24:10.397Z,99.90
2018-08-31T04:26:39.053Z,99.90
2018-08-31T04:29:07.359Z,99.90
2018-08-31T04:31:35.678Z,99.90
2018-08-31T04:34:04.101Z,99.90
2018-08-31T04:36:32.451Z,99.90
2018-08-31T04:39:00.747Z,99.90
2018-08-31T04:41:29.044Z,99.90
2018-08-31T04:43:57.348Z,99.90
2018-08-31T04:46:25.786Z,99.90
2018-08-31T04:48:54.082Z,99.90
2018-08-31T04:51:22.390Z,99.90
2018-08-31T04:53:50.775Z,99.90
2018-08-31T04:56:19.053Z,99.90
2018-08-31T04:58:47.350Z,99.90
2018-08-31T05:01:15.766Z,99.90
2018-08-31T05:03:44.174Z,99.90
2018-08-31T05:06:12.528Z,99.90
2018-08-31T05:08:40.853Z,99.90
2018-08-31T05:11:09.165Z,99.90
2018-08-31T05:13:37.677Z,99.90
2018-08-31T05:16:06.057Z,99.90
2018-08-31T05:18:34.414Z,99.90
2018-08-31T05:21:02.733Z,99.90
2018-08-31T05:23:31.343Z,99.90
2018-08-31T05:26:00.023Z,99.90
2018-08-31T05:28:28.395Z,99.90
2018-08-31T05:30:56.743Z,99.90
2018-08-31T05:33:25.057Z,99.90
2018-08-31T05:35:53.374Z,99.90
2018-08-31T05:38:21.804Z,99.90
2018-08-31T05:40:50.221Z,99.90
2018-08-31T05:43:18.557Z,99.90
2018-08-31T05:45:46.870Z,99.90
2018-08-31T05:48:15.166Z,99.90
2018-08-31T05:50:43.599Z,99.90
2018-08-31T05:53:11.970Z,99.90
2018-08-31T05:55:40.264Z,99.90
2018-08-31T05:58:08.620Z,99.90
2018-08-31T06:00:37.103Z,99.90
2018-08-31T06:03:05.433Z,99.90
2018-08-31T06:05:33.691Z,99.90
2018-08-31T06:08:02.037Z,99.90
2018-08-31T06:10:30.286Z,99.90
2018-08-31T06:12:58.606Z,99.90
2018-08-31T06:15:27.152Z,99.90
2018-08-31T06:17:55.517Z,99.90
2018-08-31T06:20:23.842Z,99.90
2018-08-31T06:22:52.156Z,99.90
2018-08-31T06:25:20.513Z,99.90
2018-08-31T06:27:48.849Z,99.90
2018-08-31T06:30:17.149Z,99.90
2018-08-31T06:32:45.726Z,99.90
2018-08-31T06:35:14.020Z,99.90
2018-08-31T06:37:42.307Z,99.90
2018-08-31T06:40:10.632Z,99.90
2018-08-31T06:42:38.944Z,99.90
2018-08-31T06:45:07.326Z,99.90
2018-08-31T06:47:35.603Z,99.90
2018-08-31T06:50:03.955Z,99.90
2018-08-31T06:52:32.211Z,99.90
2018-08-31T06:55:00.501Z,99.90
2018-08-31T06:57:28.934Z,99.90
2018-08-31T06:59:57.342Z,99.90
2018-08-31T07:02:25.680Z,99.90
2018-08-31T07:04:53.988Z,99.90
2018-08-31T07:07:22.296Z,99.90
2018-08-31T07:09:50.595Z,99.90
2018-08-31T07:12:19.032Z,99.90
2018-08-31T07:14:47.284Z,99.90
2018-08-31T07:17:15.649Z,99.90
2018-08-31T07:19:44.006Z,99.90
2018-08-31T07:22:12.271Z,99.90
2018-08-31T07:24:40.563Z,99.90
2018-08-31T07:27:08.883Z,99.90
2018-08-31T07:29:37.244Z,99.90
2018-08-31T07:32:05.815Z,99.90
2018-08-31T07:34:34.085Z,99.90
2018-08-31T07:37:02.410Z,99.90
2018-08-31T07:39:30.710Z,99.90
2018-08-31T07:41:59.012Z,99.90
2018-08-31T07:44:27.323Z,99.90
2018-08-31T07:46:55.656Z,99.90
2018-08-31T07:49:23.938Z,99.90
2018-08-31T07:51:52.230Z,99.90
2018-08-31T07:54:20.633Z,99.90
2018-08-31T07:56:48.982Z,99.90
2018-08-31T07:59:17.314Z,99.90
2018-08-31T08:01:45.633Z,99.90
2018-08-31T08:04:13.940Z,99.90
2018-08-31T08:06:42.226Z,99.90
2018-08-31T08:09:10.963Z,99.90
2018-08-31T08:11:39.291Z,99.90
2018-08-31T08:14:07.671Z,99.90
2018-08-31T08:16:35.939Z,99.90
2018-08-31T08:19:04.737Z,99.90
2018-08-31T08:21:33.032Z,99.90
2018-08-31T08:24:01.351Z,99.90
2018-08-31T08:26:29.637Z,99.90
2018-08-31T08:28:57.908Z,99.90
2018-08-31T08:31:26.190Z,99.90
2018-08-31T08:33:54.470Z,99.90
2018-08-31T08:36:23.015Z,99.90
2018-08-31T08:38:51.359Z,99.90
2018-08-31T08:41:20.318Z,99.90
2018-08-31T08:43:48.603Z,99.90
2018-08-31T08:46:17.102Z,99.90
2018-08-31T08:48:45.426Z,99.90
2018-08-31T08:51:13.645Z,99.90
2018-08-31T08:53:41.933Z,99.90
2018-08-31T08:56:10.239Z,99.90
2018-08-31T08:58:38.534Z,99.90
2018-08-31T09:01:07.914Z,99.90
2018-08-31T09:03:36.167Z,99.90
2018-08-31T09:06:04.506Z,99.90
2018-08-31T09:08:32.857Z,99.90
2018-08-31T09:11:01.131Z,99.90
2018-08-31T09:13:29.654Z,99.90
2018-08-31T09:15:57.934Z,99.90
2018-08-31T09:18:28.406Z,99.90
2018-08-31T09:20:57.245Z,99.90
2018-08-31T09:23:26.103Z,99.90
2018-08-31T09:25:55.242Z,99.90
2018-08-31T09:28:23.685Z,99.90
2018-08-31T09:30:51.978Z,99.90
2018-08-31T09:33:20.242Z,99.90
2018-08-31T09:35:48.624Z,99.90
2018-08-31T09:38:16.898Z,99.90
2018-08-31T09:40:45.182Z,99.90
2018-08-31T09:43:13.441Z,99.90
2018-08-31T09:45:42.006Z,99.90
2018-08-31T09:48:10.315Z,99.90
2018-08-31T09:50:38.586Z,99.90
2018-08-31T09:53:06.871Z,99.90
2018-08-31T09:55:35.249Z,99.90
2018-08-31T09:58:03.525Z,99.90
2018-08-31T10:00:37.078Z,99.90
2018-08-31T10:03:06.846Z,99.90
2018-08-31T10:05:35.836Z,99.90
2018-08-31T10:08:04.170Z,99.90
2018-08-31T10:10:32.528Z,99.90
2018-08-31T10:13:00.813Z,99.90
2018-08-31T10:15:29.118Z,99.90
2018-08-31T10:17:57.374Z,99.90
2018-08-31T10:20:25.678Z,99.90
2018-08-31T10:22:53.969Z,99.90
2018-08-31T10:25:22.300Z,99.90
2018-08-31T10:27:50.644Z,99.90
2018-08-31T10:30:19.043Z,99.90
2018-08-31T10:32:47.276Z,99.90
2018-08-31T10:35:15.626Z,99.90
2018-08-31T10:37:43.970Z,99.90
2018-08-31T10:40:12.302Z,99.90
2018-08-31T10:42:40.618Z,99.90
2018-08-31T10:45:09.024Z,99.90
2018-08-31T10:47:37.582Z,99.90
2018-08-31T10:50:07.287Z,99.90
2018-08-31T10:52:35.773Z,99.90
2018-08-31T10:55:04.153Z,99.90
2018-08-31T10:57:32.459Z,99.90
2018-08-31T11:00:00.797Z,99.90
2018-08-31T11:02:29.102Z,99.90
2018-08-31T11:04:57.397Z,99.90
2018-08-31T11:07:25.753Z,99.90
2018-08-31T11:09:54.030Z,99.90
2018-08-31T11:12:22.313Z,99.90
2018-08-31T11:14:50.695Z,99.90
2018-08-31T11:17:18.978Z,99.90
2018-08-31T11:19:47.481Z,99.90
2018-08-31T11:22:15.836Z,99.90
2018-08-31T11:24:44.215Z,99.90
2018-08-31T11:27:12.546Z,99.90
2018-08-31T11:29:40.821Z,99.90
2018-08-31T11:32:09.105Z,99.90
2018-08-31T11:34:37.394Z,99.90
2018-08-31T11:37:05.670Z,99.90
2018-08-31T11:39:33.946Z,99.90
2018-08-31T11:42:02.247Z,99.90
2018-08-31T11:44:30.541Z,99.90
2018-08-31T11:46:58.898Z,99.90
2018-08-31T11:49:27.227Z,99.90
2018-08-31T11:51:55.523Z,99.90
2018-08-31T11:54:23.859Z,99.90
2018-08-31T11:56:52.155Z,99.90
2018-08-31T11:59:20.433Z,99.90
2018-08-31T12:01:48.803Z,99.90
2018-08-31T12:04:17.112Z,99.90
2018-08-31T12:06:45.377Z,99.90
2018-08-31T12:09:13.650Z,99.90
2018-08-31T12:11:41.930Z,99.90
2018-08-31T12:14:10.297Z,99.90
2018-08-31T12:16:38.598Z,99.90
2018-08-31T12:19:07.058Z,99.90
2018-08-31T12:21:35.337Z,99.90
2018-08-31T12:24:03.699Z,99.90
2018-08-31T12:26:32.087Z,99.90
2018-08-31T12:29:00.481Z,99.90
2018-08-31T12:31:28.837Z,99.90
2018-08-31T12:33:57.220Z,99.90
2018-08-31T12:36:25.495Z,99.90
2018-08-31T12:38:53.752Z,99.90
2018-08-31T12:41:22.059Z,99.90
2018-08-31T12:43:50.429Z,99.90
2018-08-31T12:46:18.810Z,99.90
2018-08-31T12:48:47.124Z,99.90
2018-08-31T12:51:15.393Z,99.90
2018-08-31T12:53:43.649Z,99.90
2018-08-31T12:56:11.963Z,99.90
2018-08-31T12:58:40.278Z,99.90
2018-08-31T13:01:08.551Z,99.90
2018-08-31T13:03:36.907Z,99.90
2018-08-31T13:06:05.227Z,99.90
2018-08-31T13:08:33.658Z,99.90
2018-08-31T13:11:02.018Z,99.60
2018-08-31T13:13:30.243Z,99.90
2018-08-31T13:15:58.510Z,99.30
2018-08-31T13:18:26.827Z,99.00
2018-08-31T13:20:55.111Z,98.70
2018-08-31T13:23:23.493Z,99.10
2018-08-31T13:25:52.898Z,98.70
2018-08-31T13:28:21.788Z,97.60
2018-08-31T13:30:50.099Z,97.40
2018-08-31T13:33:18.374Z,97.40
2018-08-31T13:35:46.783Z,97.40
2018-08-31T13:38:15.092Z,96.20
2018-08-31T13:40:43.343Z,95.50
2018-08-31T13:43:11.677Z,96.60
2018-08-31T13:45:39.962Z,97.00
2018-08-31T13:48:08.283Z,96.50
2018-08-31T13:50:36.653Z,96.40
2018-08-31T13:53:04.946Z,96.80
2018-08-31T13:55:33.322Z,95.40
2018-08-31T13:58:01.646Z,95.90
2018-08-31T14:00:29.921Z,96.10
2018-08-31T14:02:58.227Z,95.70
2018-08-31T14:05:26.517Z,95.30
2018-08-31T14:07:54.810Z,95.80
2018-08-31T14:10:23.093Z,96.00
2018-08-31T14:12:51.488Z,95.40
2018-08-31T14:15:19.639Z,94.70
2018-08-31T14:17:47.924Z,94.50
2018-08-31T14:20:16.158Z,94.20
2018-08-31T14:22:44.483Z,94.80
2018-08-31T14:25:12.738Z,94.70
2018-08-31T14:27:41.320Z,94.80
2018-08-31T14:30:09.599Z,94.00
2018-08-31T14:32:37.890Z,94.20
2018-08-31T14:35:06.208Z,95.40
2018-08-31T14:37:34.587Z,94.20
2018-08-31T14:40:02.860Z,94.20
2018-08-31T14:42:31.160Z,94.20
2018-08-31T14:44:59.487Z,94.00
2018-08-31T14:47:27.900Z,93.70
2018-08-31T14:49:56.211Z,93.30
2018-08-31T14:52:24.462Z,92.30
2018-08-31T14:54:52.831Z,92.60
2018-08-31T14:57:21.126Z,93.00
2018-08-31T14:59:49.606Z,93.10
2018-08-31T15:02:17.915Z,92.80
2018-08-31T15:04:46.352Z,93.00
2018-08-31T15:07:14.714Z,94.00
2018-08-31T15:09:43.018Z,94.10
2018-08-31T15:12:11.326Z,92.90
2018-08-31T15:14:39.899Z,93.10
2018-08-31T15:17:08.177Z,92.80
2018-08-31T15:19:36.485Z,92.00
2018-08-31T15:22:04.737Z,92.80
2018-08-31T15:24:33.044Z,92.00
2018-08-31T15:27:01.324Z,91.80
2018-08-31T15:29:29.622Z,92.20
2018-08-31T15:31:57.938Z,91.50
2018-08-31T15:34:26.299Z,92.30
2018-08-31T15:36:54.674Z,91.60
2018-08-31T15:39:22.890Z,91.60
2018-08-31T15:41:51.190Z,92.30
2018-08-31T15:44:19.478Z,91.70
2018-08-31T15:46:47.758Z,91.80
2018-08-31T15:49:16.083Z,92.30
2018-08-31T15:51:44.365Z,92.00
2018-08-31T15:54:12.670Z,91.50
2018-08-31T15:56:40.977Z,91.40
2018-08-31T15:59:09.250Z,90.90
2018-08-31T16:01:37.690Z,90.70
2018-08-31T16:04:06.052Z,91.40
2018-08-31T16:06:34.427Z,91.00
2018-08-31T16:09:02.896Z,91.40
2018-08-31T16:11:31.753Z,91.00
2018-08-31T16:14:00.090Z,91.00
2018-08-31T16:16:28.401Z,91.50
2018-08-31T16:18:56.737Z,90.70
2018-08-31T16:21:25.025Z,91.60
2018-08-31T16:23:53.643Z,91.50
2018-08-31T16:26:21.954Z,91.30
2018-08-31T16:28:50.417Z,91.60
2018-08-31T16:31:18.678Z,91.80
2018-08-31T16:33:47.094Z,92.30
2018-08-31T16:36:15.387Z,92.60
2018-08-31T16:38:43.761Z,92.70
2018-08-31T16:41:12.014Z,93.10
2018-08-31T16:43:40.301Z,93.20
2018-08-31T16:46:08.606Z,94.10
2018-08-31T16:48:36.980Z,94.60
2018-08-31T16:51:05.281Z,94.50
2018-08-31T16:53:33.592Z,94.90
2018-08-31T16:56:01.898Z,95.40
2018-08-31T16:58:30.511Z,95.20
2018-08-31T17:00:58.766Z,95.10
2018-08-31T17:03:27.063Z,95.10
2018-08-31T17:05:55.432Z,95.10
2018-08-31T17:08:23.842Z,95.60
2018-08-31T17:10:52.142Z,95.80
2018-08-31T17:13:20.438Z,95.90
2018-08-31T17:15:48.739Z,96.40
2018-08-31T17:18:17.017Z,96.40
2018-08-31T17:20:45.292Z,96.40
2018-08-31T17:23:13.542Z,96.20
2018-08-31T17:25:41.856Z,96.50
2018-08-31T17:28:15.641Z,96.80
2018-08-31T17:30:43.920Z,96.70
2018-08-31T17:33:17.685Z,96.80
2018-08-31T17:35:51.225Z,96.90
2018-08-31T17:38:19.505Z,97.00
2018-08-31T17:40:47.805Z,97.00
2018-08-31T17:43:16.129Z,97.00
2018-08-31T17:45:44.469Z,96.60
2018-08-31T17:48:12.738Z,96.90
2018-08-31T17:50:41.012Z,97.10
2018-08-31T17:53:09.249Z,97.30
2018-08-31T17:55:37.615Z,97.40
2018-08-31T17:58:05.952Z,97.60
2018-08-31T18:00:34.275Z,97.80
2018-08-31T18:03:02.553Z,98.10
2018-08-31T18:05:31.769Z,98.50
2018-08-31T18:08:00.025Z,98.90
2018-08-31T18:10:28.317Z,99.20
2018-08-31T18:12:56.548Z,99.70
2018-08-31T18:15:24.893Z,99.90
2018-08-31T18:17:53.171Z,99.90
2018-08-31T18:20:21.525Z,99.90
2018-08-31T18:22:49.854Z,99.90
2018-08-31T18:25:18.147Z,99.90
2018-08-31T18:27:46.409Z,99.90
2018-08-31T18:30:14.702Z,99.90
2018-08-31T18:32:42.954Z,99.90
2018-08-31T18:35:11.263Z,99.90
2018-08-31T18:37:39.565Z,99.90
2018-08-31T18:40:08.120Z,99.90
2018-08-31T18:42:36.346Z,99.90
2018-08-31T18:45:04.665Z,99.90
2018-08-31T18:47:33.038Z,99.90
2018-08-31T18:50:01.311Z,99.90
2018-08-31T18:52:29.698Z,99.90
2018-08-31T18:54:57.939Z,99.90
2018-08-31T18:57:26.238Z,99.90
2018-08-31T18:59:54.524Z,99.90
2018-08-31T19:02:22.791Z,99.90
2018-08-31T19:04:51.088Z,99.90
2018-08-31T19:07:19.518Z,99.90
2018-08-31T19:09:47.818Z,99.90
2018-08-31T19:12:16.229Z,99.90
2018-08-31T19:14:44.546Z,99.90
2018-08-31T19:17:12.861Z,99.90
2018-08-31T19:19:41.269Z,99.90
2018-08-31T19:22:09.598Z,99.90
2018-08-31T19:24:37.913Z,99.90
2018-08-31T19:27:06.197Z,99.90
2018-08-31T19:29:34.500Z,99.90
2018-08-31T19:32:03.466Z,99.90
2018-08-31T19:34:31.743Z,99.90
2018-08-31T19:37:00.021Z,99.90
2018-08-31T19:39:28.321Z,99.90
2018-08-31T19:41:56.657Z,99.90
2018-08-31T19:44:24.955Z,99.90
2018-08-31T19:46:53.356Z,99.90
2018-08-31T19:49:21.600Z,99.90
2018-08-31T19:51:49.869Z,99.90
2018-08-31T19:54:18.170Z,99.90
2018-08-31T19:56:46.478Z,99.90
2018-08-31T19:59:14.749Z,99.90
2018-08-31T20:01:43.059Z,99.90
2018-08-31T20:04:11.485Z,99.90
2018-08-31T20:06:39.771Z,99.90
2018-08-31T20:09:09.000Z,99.90
2018-08-31T20:11:37.454Z,99.90
2018-08-31T20:14:06.121Z,99.90
2018-08-31T20:16:34.518Z,99.90
2018-08-31T20:19:02.941Z,99.90
2018-08-31T20:21:31.644Z,99.90
2018-08-31T20:23:59.977Z,99.90
2018-08-31T20:26:28.546Z,99.90
2018-08-31T20:28:57.142Z,99.90
2018-08-31T20:31:25.538Z,99.90
2018-08-31T20:33:54.226Z,99.90
2018-08-31T20:36:22.615Z,99.90
2018-08-31T20:38:51.027Z,99.90
2018-08-31T20:41:19.215Z,99.90
2018-08-31T20:43:47.492Z,99.90
2018-08-31T20:46:15.778Z,99.90
2018-08-31T20:48:44.032Z,99.90
2018-08-31T20:51:12.370Z,99.90
2018-08-31T20:53:40.662Z,99.90
2018-08-31T20:56:09.000Z,99.90
2018-08-31T20:58:37.331Z,99.90
2018-08-31T21:01:05.787Z,99.90
2018-08-31T21:03:34.189Z,99.90
2018-08-31T21:06:02.517Z,99.90
2018-08-31T21:08:30.807Z,99.90
2018-08-31T21:10:59.114Z,99.90
2018-08-31T21:13:27.517Z,99.90
2018-08-31T21:15:55.810Z,99.90
2018-08-31T21:18:24.210Z,99.90
2018-08-31T21:20:52.500Z,99.90
2018-08-31T21:23:20.797Z,99.90
2018-08-31T21:25:49.138Z,99.90
2018-08-31T21:28:17.391Z,99.90
2018-08-31T21:30:45.733Z,99.90
2018-08-31T21:33:14.082Z,99.90
2018-08-31T21:35:42.354Z,99.90
2018-08-31T21:38:10.638Z,99.90
2018-08-31T21:40:38.925Z,99.90
2018-08-31T21:43:07.313Z,99.90
2018-08-31T21:45:35.605Z,99.90
2018-08-31T21:48:03.880Z,99.90
2018-08-31T21:50:32.638Z,99.90
2018-08-31T21:53:00.921Z,99.90
2018-08-31T21:55:29.288Z,99.90
2018-08-31T21:57:57.486Z,99.90
2018-08-31T22:00:25.751Z,99.90
2018-08-31T22:02:54.014Z,99.90
2018-08-31T22:05:22.312Z,99.90
2018-08-31T22:07:50.642Z,99.90
2018-08-31T22:10:18.963Z,99.90
2018-08-31T22:12:47.255Z,99.90
2018-08-31T22:15:21.029Z,99.90
2018-08-31T22:17:49.313Z,99.90
2018-08-31T22:20:17.583Z,99.90
2018-08-31T22:22:45.913Z,99.90
2018-08-31T22:25:14.222Z,99.90
2018-08-31T22:27:42.529Z,99.90
2018-08-31T22:30:10.835Z,99.90
2018-08-31T22:32:39.147Z,99.90
2018-08-31T22:35:07.446Z,99.90
2018-08-31T22:37:35.725Z,99.90
2018-08-31T22:40:04.002Z,99.90
2018-08-31T22:42:32.524Z,99.90
2018-08-31T22:45:00.801Z,99.90
2018-08-31T22:47:29.182Z,99.90
2018-08-31T22:49:57.461Z,99.90
2018-08-31T22:52:25.802Z,99.90
2018-08-31T22:54:54.199Z,99.90
2018-08-31T22:57:22.521Z,99.90
2018-08-31T22:59:50.787Z,99.90
2018-08-31T23:02:19.085Z,99.90
2018-08-31T23:04:47.382Z,99.90
2018-08-31T23:07:20.948Z,99.90
2018-08-31T23:09:49.209Z,99.90
2018-08-31T23:12:17.530Z,99.90
2018-08-31T23:14:45.824Z,99.90
2018-08-31T23:17:14.177Z,99.90
2018-08-31T23:19:42.462Z,99.90
2018-08-31T23:22:10.786Z,99.90
2018-08-31T23:24:39.081Z,99.90
2018-08-31T23:27:07.363Z,99.90
2018-08-31T23:29:35.689Z,99.90
2018-08-31T23:32:03.986Z,99.90
2018-08-31T23:34:32.258Z,99.90
2018-08-31T23:37:00.581Z,99.90
2018-08-31T23:39:28.872Z,99.90
2018-08-31T23:41:57.204Z,99.90
2018-08-31T23:44:26.097Z,99.90
2018-08-31T23:46:54.384Z,99.90
2018-08-31T23:49:22.640Z,99.90
2018-08-31T23:51:51.139Z,99.90
2018-08-31T23:54:19.449Z,99.90
2018-08-31T23:56:47.767Z,99.90
2018-08-31T23:59:16.050Z,99.90
